Time;durP1;ratioP1;P1;durP2;ratioP2;P2;SDS_P1;SDS_P2;PMS_P1;PMS_P2;Temp;Humidity;BMP_temperature;BMP_pressure;BME280_temperature;BME280_humidity;BME280_pressure;Samples;Min_cycle;Max_cycle;Signal;HPM_P1;HPM_P2
2023/08/07 00:00:09;;;;;;;0.90;0.10;;;;;;;14.95;100.00;97539.33;107507;1269;25207;-56
2023/08/07 00:03:55;;;;;;;0.10;0.10;;;;;;;14.90;100.00;97536.67;107176;1266;22664;-55
2023/08/07 00:06:24;;;;;;;0.00;0.00;;;;;;;14.89;100.00;97531.63;107652;1268;25536;-54
2023/08/07 00:09:01;;;;;;;0.60;0.10;;;;;;;14.85;100.00;97530.48;106911;1269;100680;-57
2023/08/07 00:11:48;;;;;;;1.50;0.20;;;;;;;14.82;100.00;97530.86;107117;1269;22742;-55
2023/08/07 00:14:26;;;;;;;0.20;0.10;;;;;;;14.81;100.00;97534.63;107261;1269;103305;-55
2023/08/07 00:17:00;;;;;;;0.00;0.00;;;;;;;14.81;100.00;97543.53;107200;1270;23215;-56
2023/08/07 00:19:38;;;;;;;0.20;0.10;;;;;;;14.80;100.00;97547.85;107089;1267;99304;-56
2023/08/07 00:22:10;;;;;;;0.10;0.10;;;;;;;14.75;100.00;97542.67;107573;1275;23115;-56
2023/08/07 00:24:39;;;;;;;1.10;0.20;;;;;;;14.70;100.00;97539.85;107057;1269;99464;-56
2023/08/07 00:27:23;;;;;;;0.10;0.10;;;;;;;14.68;100.00;97539.05;107025;1267;24525;-53
2023/08/07 00:29:52;;;;;;;0.10;0.10;;;;;;;14.68;100.00;97540.44;107357;1266;25536;-55
2023/08/07 00:32:26;;;;;;;0.70;0.10;;;;;;;14.70;100.00;97531.12;107210;1272;99704;-56
2023/08/07 00:35:06;;;;;;;0.20;0.10;;;;;;;14.68;100.00;97523.63;106987;1272;22528;-58
2023/08/07 00:38:33;;;;;;;0.00;0.00;;;;;;;14.69;100.00;97518.95;106945;1268;99312;-55
2023/08/07 00:41:02;;;;;;;0.00;0.00;;;;;;;14.72;100.00;97523.46;106409;1276;24207;-59
2023/08/07 00:43:52;;;;;;;0.10;0.00;;;;;;;14.72;100.00;97526.58;106249;1275;99261;-58
2023/08/07 00:46:22;;;;;;;0.80;0.00;;;;;;;14.74;100.00;97527.25;106705;1278;25271;-55
2023/08/07 00:48:53;;;;;;;0.00;0.00;;;;;;;14.73;100.00;97527.15;106307;1276;100079;-56
2023/08/07 00:51:30;;;;;;;0.40;0.10;;;;;;;14.74;100.00;97529.80;106653;1271;23907;-59
2023/08/07 00:54:25;;;;;;;2.00;0.10;;;;;;;14.75;100.00;97517.70;106580;1276;22593;-55
2023/08/07 00:56:54;;;;;;;0.20;0.10;;;;;;;14.75;100.00;97522.36;106706;1275;99157;-55
2023/08/07 00:59:26;;;;;;;0.00;0.00;;;;;;;14.76;100.00;97520.15;107173;1275;22205;-55
2023/08/07 01:02:01;;;;;;;0.00;0.00;;;;;;;14.76;100.00;97516.02;106440;1275;99404;-55
2023/08/07 01:04:43;;;;;;;0.10;0.00;;;;;;;14.76;100.00;97507.09;106461;1265;22654;-54
2023/08/07 01:07:23;;;;;;;0.20;0.10;;;;;;;14.76;100.00;97514.44;106495;1278;99704;-59
2023/08/07 01:10:30;;;;;;;1.30;0.10;;;;;;;14.76;100.00;97518.60;106847;1276;22564;-56
2023/08/07 01:14:18;;;;;;;0.10;0.10;;;;;;;14.77;100.00;97511.80;106898;1275;99981;-55
2023/08/07 01:17:06;;;;;;;0.40;0.10;;;;;;;14.78;100.00;97507.55;106687;1275;24386;-56
2023/08/07 01:19:39;;;;;;;0.20;0.10;;;;;;;14.81;100.00;97506.06;107339;1254;99260;-57
2023/08/07 01:22:30;;;;;;;0.10;0.10;;;;;;;14.80;100.00;97508.09;107225;1269;22640;-56
2023/08/07 01:25:21;;;;;;;;;;;;;;;;;;;;;
2023/08/07 01:28:07;;;;;;;0.00;0.00;;;;;;;14.68;100.00;97513.45;107502;1267;25436;-55
2023/08/07 01:31:06;;;;;;;0.00;0.00;;;;;;;14.72;100.00;97510.96;106972;1267;22709;-55
2023/08/07 01:34:09;;;;;;;0.30;0.10;;;;;;;14.70;100.00;97509.39;107226;1269;24251;-55
2023/08/07 01:36:48;;;;;;;0.00;0.00;;;;;;;14.66;100.00;97507.52;107198;1269;99429;-56
2023/08/07 01:39:27;;;;;;;0.10;0.10;;;;;;;14.64;100.00;97496.35;106941;1272;22514;-55
2023/08/07 01:42:04;;;;;;;0.10;0.00;;;;;;;14.66;100.00;97482.34;107293;1267;22526;-56
2023/08/07 01:44:53;;;;;;;0.20;0.10;;;;;;;14.67;100.00;97485.06;107532;1267;99996;-55
2023/08/07 01:47:43;;;;;;;0.10;0.10;;;;;;;14.67;100.00;97479.63;107146;1267;22766;-57
2023/08/07 01:50:15;;;;;;;0.10;0.10;;;;;;;14.67;100.00;97476.09;107225;1270;99280;-55
2023/08/07 01:52:54;;;;;;;0.10;0.10;;;;;;;14.62;100.00;97480.17;106905;1272;24501;-55
2023/08/07 01:55:33;;;;;;;0.60;0.10;;;;;;;14.64;100.00;97468.02;107193;1269;99979;-54
2023/08/07 01:58:13;;;;;;;1.20;0.60;;;;;;;14.67;100.00;97464.20;107354;1271;22531;-54
2023/08/07 02:00:48;;;;;;;0.00;0.00;;;;;;;14.69;100.00;97459.95;106905;1267;22523;-55
2023/08/07 02:03:20;;;;;;;0.00;0.00;;;;;;;14.70;100.00;97460.87;107163;1272;22617;-56
2023/08/07 02:06:10;;;;;;;0.30;0.20;;;;;;;14.69;100.00;97460.10;107346;1263;22507;-55
2023/08/07 02:08:39;;;;;;;0.10;0.10;;;;;;;14.69;100.00;97452.21;106951;1267;99367;-55
2023/08/07 02:11:22;;;;;;;0.10;0.10;;;;;;;14.70;100.00;97453.77;107404;1266;25356;-57
2023/08/07 02:13:56;;;;;;;1.00;0.10;;;;;;;14.67;100.00;97454.92;107178;1269;99826;-54
2023/08/07 02:16:48;;;;;;;2.60;0.30;;;;;;;14.63;100.00;97455.82;107236;1269;23862;-55
2023/08/07 02:19:27;;;;;;;0.80;0.20;;;;;;;14.62;100.00;97458.80;107682;1269;22660;-55
2023/08/07 02:22:06;;;;;;;0.10;0.00;;;;;;;14.60;100.00;97453.55;106886;1274;25511;-56
2023/08/07 02:25:12;;;;;;;0.50;0.00;;;;;;;14.60;100.00;97444.78;107148;1266;22638;-56
2023/08/07 02:27:51;;;;;;;0.00;0.00;;;;;;;14.64;100.00;97429.38;107364;1267;22524;-55
2023/08/07 02:30:23;;;;;;;0.10;0.10;;;;;;;14.64;100.00;97427.92;107133;1267;25304;-56
2023/08/07 02:32:55;;;;;;;0.10;0.00;;;;;;;14.61;100.00;97432.05;107153;1270;99810;-56
2023/08/07 02:35:51;;;;;;;0.00;0.00;;;;;;;14.62;100.00;97429.39;107124;1266;24210;-55
2023/08/07 02:38:21;;;;;;;0.10;0.00;;;;;;;14.64;100.00;97428.64;107430;1267;99342;-56
2023/08/07 02:40:58;;;;;;;0.00;0.00;;;;;;;14.65;100.00;97429.25;107377;1263;22515;-56
2023/08/07 02:43:28;;;;;;;0.00;0.00;;;;;;;14.67;100.00;97430.02;107170;1270;99880;-55
2023/08/07 02:46:11;;;;;;;0.00;0.00;;;;;;;14.67;100.00;97430.64;107430;1267;22572;-54
2023/08/07 02:49:12;;;;;;;0.10;0.00;;;;;;;14.69;100.00;97438.46;107546;1272;25217;-55
2023/08/07 02:51:42;;;;;;;0.10;0.10;;;;;;;14.71;100.00;97443.97;107445;1272;25284;-58
2023/08/07 02:54:31;;;;;;;0.00;0.00;;;;;;;14.73;100.00;97442.23;107796;1269;25483;-58
2023/08/07 02:57:06;;;;;;;0.00;0.00;;;;;;;14.71;100.00;97452.08;107189;1267;99310;-54
2023/08/07 02:59:35;;;;;;;0.00;0.00;;;;;;;14.74;100.00;97462.30;107333;1270;23264;-55
2023/08/07 03:02:14;;;;;;;0.90;0.10;;;;;;;14.77;100.00;97457.91;107158;1272;99509;-55
2023/08/07 03:04:43;;;;;;;0.20;0.00;;;;;;;14.77;100.00;97462.09;107453;1267;25273;-56
2023/08/07 03:07:20;;;;;;;0.00;0.00;;;;;;;14.79;100.00;97460.73;107194;1267;99806;-57
2023/08/07 03:10:19;;;;;;;0.70;0.00;;;;;;;14.82;100.00;97466.36;107463;1267;22543;-55
2023/08/07 03:13:05;;;;;;;0.20;0.10;;;;;;;14.83;100.00;97468.54;107037;1266;22630;-56
2023/08/07 03:15:52;;;;;;;;;;;;;;;;;;;;;
2023/08/07 03:18:28;;;;;;;0.00;0.00;;;;;;;14.84;100.00;97467.52;107032;1269;25245;-57
2023/08/07 03:21:03;;;;;;;0.20;0.00;;;;;;;14.82;100.00;97464.92;107376;1267;99982;-54
2023/08/07 03:23:44;;;;;;;0.70;0.00;;;;;;;14.81;100.00;97472.89;108089;1266;23656;-56
2023/08/07 03:26:23;;;;;;;0.10;0.00;;;;;;;14.77;100.00;97475.93;106942;1266;99312;-55
2023/08/07 03:29:01;;;;;;;0.00;0.00;;;;;;;14.77;100.00;97477.54;107199;1266;24224;-55
2023/08/07 03:31:30;;;;;;;0.80;0.70;;;;;;;14.81;100.00;97475.36;107255;1269;100239;-54
2023/08/07 03:33:59;;;;;;;0.00;0.00;;;;;;;14.83;100.00;97472.34;107571;1269;22512;-55
2023/08/07 03:36:28;;;;;;;0.00;0.00;;;;;;;14.86;100.00;97470.20;107208;1251;24187;-56
2023/08/07 03:38:57;;;;;;;0.20;0.00;;;;;;;14.86;100.00;97469.60;107246;1267;99496;-56
2023/08/07 03:41:32;;;;;;;0.10;0.00;;;;;;;14.88;100.00;97459.95;106746;1267;22526;-54
2023/08/07 03:44:40;;;;;;;0.10;0.10;;;;;;;14.92;100.00;97455.20;107138;1267;99283;-57
2023/08/07 03:47:09;;;;;;;0.00;0.00;;;;;;;14.95;100.00;97458.36;107123;1267;25271;-56
2023/08/07 03:49:44;;;;;;;0.10;0.10;;;;;;;14.93;100.00;97461.71;106938;1267;99464;-55
2023/08/07 03:52:38;;;;;;;0.10;0.00;;;;;;;14.94;100.00;97469.30;107002;1267;22550;-56
2023/08/07 03:55:10;;;;;;;0.10;0.10;;;;;;;14.98;100.00;97486.61;107160;1271;99443;-57
2023/08/07 03:57:42;;;;;;;0.10;0.10;;;;;;;14.95;100.00;97493.02;107086;1272;24244;-57
2023/08/07 04:00:27;;;;;;;0.10;0.10;;;;;;;14.97;100.00;97501.60;106942;1275;22518;-55
2023/08/07 04:02:56;;;;;;;0.10;0.10;;;;;;;14.95;100.00;97519.18;107024;1275;99303;-56
2023/08/07 04:05:25;;;;;;;0.10;0.10;;;;;;;14.95;100.00;97527.77;106849;1270;25403;-55
2023/08/07 04:07:59;;;;;;;0.10;0.10;;;;;;;14.95;100.00;97519.66;106908;1272;100556;-56
2023/08/07 04:10:37;;;;;;;0.20;0.20;;;;;;;14.97;100.00;97515.41;106916;1272;22557;-55
2023/08/07 04:13:12;;;;;;;0.50;0.00;;;;;;;14.94;100.00;97519.23;107346;1269;26473;-58
2023/08/07 04:15:41;;;;;;;0.00;0.00;;;;;;;14.90;100.00;97522.98;106877;1270;22748;-56
2023/08/07 04:18:15;;;;;;;0.00;0.00;;;;;;;14.89;100.00;97508.77;106934;1270;22765;-55
2023/08/07 04:20:59;;;;;;;1.30;0.00;;;;;;;14.86;100.00;97495.95;106941;1269;99679;-56
2023/08/07 04:23:28;;;;;;;0.00;0.00;;;;;;;14.83;100.00;97496.88;107379;1270;22501;-56
2023/08/07 04:26:50;;;;;;;0.00;0.00;;;;;;;14.81;100.00;97504.45;106967;1272;100138;-54
2023/08/07 04:32:35;;;;;;;0.10;0.00;;;;;;;14.91;100.00;97484.39;106294;1274;99394;-56
2023/08/07 04:35:13;;;;;;;0.00;0.00;;;;;;;14.92;100.00;97483.35;106702;1283;22529;-55
2023/08/07 04:37:47;;;;;;;0.00;0.00;;;;;;;14.97;100.00;97482.68;106080;1279;99702;-55
2023/08/07 04:40:20;;;;;;;0.00;0.00;;;;;;;14.99;100.00;97489.83;106225;1279;22953;-56
2023/08/07 04:42:50;;;;;;;0.00;0.00;;;;;;;15.03;100.00;97500.19;106312;1280;22536;-55
2023/08/07 04:45:29;;;;;;;0.30;0.10;;;;;;;15.06;100.00;97501.13;106412;1262;100108;-55
2023/08/07 04:48:04;;;;;;;0.50;0.00;;;;;;;15.07;100.00;97501.30;106483;1273;23953;-54
2023/08/07 04:50:35;;;;;;;0.10;0.10;;;;;;;15.08;100.00;97498.25;106393;1279;99339;-56
2023/08/07 04:53:06;;;;;;;0.00;0.00;;;;;;;15.12;100.00;97498.02;106591;1279;25325;-54
2023/08/07 04:55:35;;;;;;;0.00;0.00;;;;;;;15.13;100.00;97501.93;106435;1279;100666;-57
2023/08/07 04:58:13;;;;;;;1.20;0.30;;;;;;;15.21;100.00;97508.64;106435;1278;22520;-55
2023/08/07 05:00:54;;;;;;;0.00;0.00;;;;;;;15.24;100.00;97517.45;106435;1279;24243;-55
2023/08/07 05:03:26;;;;;;;0.20;0.00;;;;;;;15.31;100.00;97523.10;106835;1276;99819;-56
2023/08/07 05:06:01;;;;;;;0.50;0.10;;;;;;;15.32;100.00;97520.65;107370;1273;26434;-55
2023/08/07 05:08:31;;;;;;;0.00;0.00;;;;;;;15.30;100.00;97522.30;107097;1275;99506;-56
2023/08/07 05:11:09;;;;;;;0.00;0.00;;;;;;;15.29;100.00;97522.48;107119;1272;23896;-56
2023/08/07 05:13:41;;;;;;;0.20;0.00;;;;;;;15.28;100.00;97515.83;107118;1269;99837;-56
2023/08/07 05:16:10;;;;;;;0.50;0.10;;;;;;;15.31;100.00;97515.05;106901;1268;25497;-55
2023/08/07 05:19:21;;;;;;;0.00;0.00;;;;;;;15.40;100.00;97516.38;106760;1269;22566;-54
2023/08/07 05:21:53;;;;;;;0.30;0.00;;;;;;;15.57;100.00;97526.29;107013;1270;24256;-54
2023/08/07 05:24:45;;;;;;;;;;;;;;;;;;;;;
2023/08/07 05:27:22;;;;;;;0.10;0.00;;;;;;;15.85;100.00;97523.00;107260;1266;99368;-56
2023/08/07 05:30:05;;;;;;;0.20;0.10;;;;;;;15.92;100.00;97530.07;107190;1270;24334;-55
2023/08/07 05:32:43;;;;;;;0.00;0.00;;;;;;;15.95;100.00;97536.40;107408;1269;99271;-56
2023/08/07 05:35:24;;;;;;;0.10;0.10;;;;;;;16.00;100.00;97539.04;107149;1275;22626;-53
2023/08/07 05:38:00;;;;;;;0.00;0.00;;;;;;;16.10;100.00;97527.72;107080;1269;99509;-53
2023/08/07 05:40:41;;;;;;;0.10;0.10;;;;;;;16.17;100.00;97520.70;107092;1273;22714;-56
2023/08/07 05:43:10;;;;;;;0.10;0.00;;;;;;;16.24;100.00;97510.50;106836;1270;22524;-53
2023/08/07 05:45:46;;;;;;;0.00;0.00;;;;;;;16.37;100.00;97506.55;106961;1270;99601;-54
2023/08/07 05:48:24;;;;;;;0.40;0.10;;;;;;;16.56;100.00;97502.07;106993;1269;22602;-55
2023/08/07 05:50:57;;;;;;;0.10;0.00;;;;;;;16.71;100.00;97498.69;106790;1270;99344;-53
2023/08/07 05:53:38;;;;;;;0.00;0.00;;;;;;;16.95;100.00;97494.63;107084;1270;24232;-56
2023/08/07 05:56:16;;;;;;;0.00;0.00;;;;;;;16.99;100.00;97495.61;107072;1267;99456;-54
2023/08/07 05:58:46;;;;;;;0.60;0.20;;;;;;;17.08;100.00;97503.08;106892;1267;25230;-54
2023/08/07 06:01:17;;;;;;;0.00;0.00;;;;;;;17.09;100.00;97501.80;106923;1272;25309;-55
2023/08/07 06:03:58;;;;;;;1.70;0.10;;;;;;;17.13;100.00;97500.38;102907;1267;5527082;-59
2023/08/07 06:06:28;;;;;;;0.10;0.00;;;;;;;17.19;100.00;97505.38;107125;1263;22535;-54
2023/08/07 06:09:10;;;;;;;0.10;0.10;;;;;;;17.25;100.00;97513.36;107184;1272;99249;-55
2023/08/07 06:11:42;;;;;;;0.10;0.00;;;;;;;17.27;100.00;97515.80;107657;1266;22524;-56
2023/08/07 06:14:25;;;;;;;0.20;0.10;;;;;;;17.30;100.00;97520.05;107433;1269;99415;-56
2023/08/07 06:17:35;;;;;;;0.40;0.40;;;;;;;17.21;100.00;97516.34;107294;1267;22518;-55
2023/08/07 06:20:25;;;;;;;0.20;0.00;;;;;;;17.16;100.00;97526.14;107130;1268;99465;-55
2023/08/07 06:22:54;;;;;;;0.10;0.00;;;;;;;17.18;100.00;97535.16;107558;1267;23427;-54
2023/08/07 06:25:23;;;;;;;0.20;0.10;;;;;;;17.17;100.00;97543.77;107888;1267;23206;-58
2023/08/07 06:27:58;;;;;;;0.00;0.00;;;;;;;17.15;100.00;97550.24;107852;1269;22622;-55
2023/08/07 06:30:49;;;;;;;0.00;0.00;;;;;;;17.15;100.00;97551.83;107889;1270;22569;-56
2023/08/07 06:33:18;;;;;;;0.00;0.00;;;;;;;17.07;100.00;97555.61;107321;1267;99278;-55
2023/08/07 06:35:55;;;;;;;0.10;0.10;;;;;;;17.06;100.00;97555.86;107615;1269;22561;-55
2023/08/07 06:38:24;;;;;;;;;;;;;;;17.08;100.00;97554.20;110064;1273;99830;-56
2023/08/07 06:41:27;;;;;;;0.10;0.10;;;;;;;17.01;100.00;97534.77;109923;1267;22559;-53
2023/08/07 06:43:59;;;;;;;0.10;0.10;;;;;;;17.04;100.00;97527.45;110231;1273;99959;-56
2023/08/07 06:46:28;;;;;;;0.10;0.10;;;;;;;17.07;100.00;97521.84;110367;1267;22292;-56
2023/08/07 06:48:56;;;;;;;0.20;0.10;;;;;;;17.18;100.00;97524.26;109880;1263;22639;-56
2023/08/07 06:51:25;;;;;;;0.50;0.00;;;;;;;17.27;100.00;97527.60;107305;1270;99677;-54
2023/08/07 06:54:02;;;;;;;0.40;0.10;;;;;;;17.33;100.00;97539.58;107510;1273;22515;-55
2023/08/07 06:56:44;;;;;;;0.40;0.10;;;;;;;17.63;100.00;97549.45;109385;1275;99330;-55
2023/08/07 06:59:13;;;;;;;0.20;0.10;;;;;;;17.89;100.00;97541.67;107441;1272;22986;-56
2023/08/07 07:01:41;;;;;;;0.10;0.10;;;;;;;18.15;100.00;97532.94;107933;1272;100320;-55
2023/08/07 07:04:13;;;;;;;0.30;0.20;;;;;;;18.30;100.00;97548.66;107379;1259;22953;-54
2023/08/07 07:06:41;;;;;;;0.40;0.10;;;;;;;18.41;100.00;97561.63;107664;1269;22509;-55
2023/08/07 07:09:10;;;;;;;0.00;0.00;;;;;;;18.52;100.00;97568.80;109886;1270;99928;-56
2023/08/07 07:12:28;;;;;;;1.60;0.00;;;;;;;18.41;100.00;97573.42;108967;1270;22527;-54
2023/08/07 07:15:00;;;;;;;0.10;0.00;;;;;;;18.24;100.00;97571.23;107359;1267;99627;-54
2023/08/07 07:17:29;;;;;;;0.20;0.10;;;;;;;18.28;100.00;97576.58;110300;1272;23596;-54
2023/08/07 07:20:09;;;;;;;0.40;0.10;;;;;;;18.42;100.00;97580.60;110113;1267;101349;-53
2023/08/07 07:22:39;;;;;;;0.10;0.10;;;;;;;18.52;100.00;97575.83;108143;1272;23345;-54
2023/08/07 07:25:10;;;;;;;0.10;0.10;;;;;;;18.58;100.00;97574.59;107443;1272;22538;-51
2023/08/07 07:27:39;;;;;;;0.40;0.10;;;;;;;18.63;100.00;97584.73;107195;1270;99487;-54
2023/08/07 07:30:08;;;;;;;0.30;0.10;;;;;;;18.62;100.00;97588.39;108985;1272;25400;-54
2023/08/07 07:32:37;;;;;;;0.10;0.10;;;;;;;18.67;100.00;97592.40;107097;1275;99651;-54
2023/08/07 07:35:05;;;;;;;0.90;0.10;;;;;;;18.72;100.00;97591.40;107604;1267;22548;-54
2023/08/07 07:37:34;;;;;;;0.90;0.10;;;;;;;18.88;100.00;97587.27;107275;1273;23243;-53
2023/08/07 07:40:03;;;;;;;0.70;0.20;;;;;;;18.93;100.00;97586.55;107836;1267;22535;-55
2023/08/07 07:42:33;;;;;;;0.40;0.20;;;;;;;19.02;100.00;97585.88;107695;1270;22640;-53
2023/08/07 07:45:16;;;;;;;0.60;0.30;;;;;;;19.16;100.00;97586.27;107689;1270;99514;-54
2023/08/07 07:47:44;;;;;;;0.60;0.40;;;;;;;19.16;100.00;97589.52;107908;1271;23033;-54
2023/08/07 07:50:13;;;;;;;0.00;0.00;;;;;;;19.19;100.00;97599.29;110079;1275;99849;-55
2023/08/07 07:52:43;;;;;;;0.40;0.20;;;;;;;19.16;100.00;97594.33;109714;1264;23879;-55
2023/08/07 07:55:13;;;;;;;1.00;0.10;;;;;;;19.08;100.00;97593.50;108053;1271;22673;-51
2023/08/07 07:57:42;;;;;;;0.60;0.10;;;;;;;18.87;100.00;97594.33;107108;1270;99762;-61
2023/08/07 08:00:12;;;;;;;0.40;0.10;;;;;;;18.71;100.00;97593.85;107675;1267;22534;-52
2023/08/07 08:02:42;;;;;;;0.50;0.10;;;;;;;18.62;100.00;97595.09;107434;1267;99708;-55
2023/08/07 08:05:12;;;;;;;0.20;0.10;;;;;;;18.46;100.00;97597.21;109173;1251;22566;-55
2023/08/07 08:07:40;;;;;;;0.10;0.10;;;;;;;18.44;100.00;97593.16;107462;1270;99898;-56
2023/08/07 08:10:09;;;;;;;0.30;0.20;;;;;;;18.42;100.00;97589.86;109303;1269;23501;-55
2023/08/07 08:12:39;;;;;;;0.30;0.10;;;;;;;18.37;100.00;97584.31;109844;1266;22548;-55
2023/08/07 08:15:08;;;;;;;0.70;0.20;;;;;;;18.40;100.00;97596.30;107251;1267;100166;-54
2023/08/07 08:17:36;;;;;;;0.30;0.20;;;;;;;18.35;100.00;97601.83;107302;1267;22946;-55
2023/08/07 08:20:07;;;;;;;1.10;0.10;;;;;;;18.37;100.00;97606.67;107178;1273;102915;-50
2023/08/07 08:22:36;;;;;;;0.30;0.20;;;;;;;18.34;100.00;97607.72;110253;1267;22387;-53
2023/08/07 08:25:09;;;;;;;0.10;0.10;;;;;;;18.27;100.00;97598.15;110338;1267;22530;-53
2023/08/07 08:27:39;;;;;;;0.10;0.00;;;;;;;18.20;100.00;97596.54;108648;1269;99335;-55
2023/08/07 08:30:09;;;;;;;1.60;0.10;;;;;;;18.34;100.00;97596.27;110321;1271;22903;-53
2023/08/07 08:32:39;;;;;;;0.10;0.10;;;;;;;18.45;100.00;97601.70;107950;1270;99740;-55
2023/08/07 08:35:11;;;;;;;0.10;0.10;;;;;;;18.46;100.00;97607.38;110325;1269;22414;-55
2023/08/07 08:37:54;;;;;;;0.40;0.10;;;;;;;18.41;100.00;97609.75;110211;1270;99870;-56
2023/08/07 08:40:27;;;;;;;7.10;0.20;;;;;;;18.38;100.00;97613.77;110209;1260;23343;-58
2023/08/07 08:43:05;;;;;;;0.80;0.10;;;;;;;18.42;100.00;97611.73;110426;1267;22685;-54
2023/08/07 08:45:47;;;;;;;0.60;0.00;;;;;;;18.36;100.00;97619.42;109548;1267;99761;-56
2023/08/07 08:48:21;;;;;;;0.20;0.10;;;;;;;18.28;100.00;97625.98;107442;1270;22543;-54
2023/08/07 08:50:52;;;;;;;1.40;0.10;;;;;;;18.32;100.00;97615.01;108080;1267;99729;-54
2023/08/07 08:53:22;;;;;;;3.00;0.20;;;;;;;18.28;100.00;97626.89;107249;1257;26233;-47
2023/08/07 08:55:52;;;;;;;0.10;0.10;;;;;;;18.18;100.00;97627.50;109620;1270;99751;-51
2023/08/07 08:58:30;;;;;;;2.20;0.10;;;;;;;18.21;100.00;97626.60;107618;1268;24036;-52
2023/08/07 09:01:09;;;;;;;0.50;0.00;;;;;;;18.11;100.00;97640.90;107863;1267;22521;-54
2023/08/07 09:03:49;;;;;;;0.30;0.00;;;;;;;18.00;100.00;97651.66;107356;1270;99700;-52
2023/08/07 09:06:23;;;;;;;0.60;0.20;;;;;;;17.93;100.00;97658.05;107299;1267;22727;-53
2023/08/07 09:08:53;;;;;;;0.10;0.10;;;;;;;18.03;100.00;97647.45;108086;1267;100270;-54
2023/08/07 09:11:22;;;;;;;0.20;0.10;;;;;;;18.13;100.00;97665.23;107331;1266;22531;-54
2023/08/07 09:13:52;;;;;;;0.20;0.10;;;;;;;18.12;100.00;97676.78;107167;1267;99532;-53
2023/08/07 09:16:25;;;;;;;0.00;0.00;;;;;;;18.14;100.00;97679.19;107361;1266;24235;-53
2023/08/07 09:18:55;;;;;;;1.50;0.20;;;;;;;18.33;100.00;97687.97;107273;1270;22665;-54
2023/08/07 09:21:25;;;;;;;2.00;0.60;;;;;;;18.46;100.00;97688.40;110300;1266;100177;-55
2023/08/07 09:23:54;;;;;;;1.10;0.40;;;;;;;18.57;100.00;97693.17;110196;1267;22342;-57
2023/08/07 09:26:24;;;;;;;0.70;0.30;;;;;;;18.65;100.00;97706.90;107189;1271;99493;-55
2023/08/07 09:28:53;;;;;;;0.20;0.10;;;;;;;18.84;100.00;97701.74;109373;1267;23866;-52
2023/08/07 09:31:27;;;;;;;0.10;0.00;;;;;;;19.10;100.00;97699.98;107344;1269;22517;-55
2023/08/07 09:34:05;;;;;;;0.30;0.10;;;;;;;19.20;100.00;97696.54;107061;1267;99078;-55
2023/08/07 09:36:37;;;;;;;0.10;0.10;;;;;;;19.48;100.00;97692.79;107332;1270;24235;-52
2023/08/07 09:39:07;;;;;;;0.70;0.10;;;;;;;19.25;100.00;97689.55;107126;1269;99805;-54
2023/08/07 09:41:36;;;;;;;0.20;0.20;;;;;;;19.02;100.00;97708.19;106859;1270;24211;-52
2023/08/07 09:44:11;;;;;;;0.10;0.00;;;;;;;19.01;100.00;97707.80;107134;1270;99495;-55
2023/08/07 09:46:44;;;;;;;0.00;0.00;;;;;;;18.87;100.00;97723.52;107087;1266;22721;-51
2023/08/07 09:49:18;;;;;;;0.10;0.10;;;;;;;18.69;100.00;97733.96;106946;1267;23733;-54
2023/08/07 09:51:51;;;;;;;0.70;0.40;;;;;;;18.51;100.00;97734.20;106990;1267;99802;-53
2023/08/07 09:54:20;;;;;;;0.80;0.40;;;;;;;18.38;100.00;97740.55;107051;1255;22541;-55
2023/08/07 09:56:50;;;;;;;0.50;0.20;;;;;;;18.30;99.96;97733.09;106962;1270;99440;-53
2023/08/07 09:59:20;;;;;;;1.00;0.20;;;;;;;18.29;99.90;97724.84;106997;1270;25392;-56
2023/08/07 10:01:54;;;;;;;0.60;0.30;;;;;;;18.40;100.00;97724.00;106980;1267;99229;-52
2023/08/07 10:04:24;;;;;;;0.60;0.20;;;;;;;18.49;99.90;97719.27;107044;1272;24247;-55
2023/08/07 10:06:54;;;;;;;0.30;0.20;;;;;;;18.47;99.33;97717.57;107034;1267;25504;-54
2023/08/07 10:09:24;;;;;;;0.40;0.30;;;;;;;18.45;99.06;97715.86;107093;1258;99119;-60
2023/08/07 10:11:54;;;;;;;1.00;0.30;;;;;;;18.34;98.95;97717.09;107202;1272;23873;-55
2023/08/07 10:14:24;;;;;;;0.60;0.30;;;;;;;18.32;98.89;97728.02;107051;1270;99831;-55
2023/08/07 10:16:54;;;;;;;0.50;0.30;;;;;;;18.24;99.04;97728.79;106951;1267;25303;-53
2023/08/07 10:19:26;;;;;;;0.20;0.20;;;;;;;18.18;98.73;97737.05;107253;1251;25623;-55
2023/08/07 10:21:55;;;;;;;0.70;0.30;;;;;;;18.41;98.45;97733.58;107023;1256;98940;-54
2023/08/07 10:24:29;;;;;;;0.40;0.20;;;;;;;18.51;97.77;97729.77;106994;1271;22529;-56
2023/08/07 10:26:59;;;;;;;2.30;0.50;;;;;;;18.67;97.83;97729.48;107029;1273;99074;-56
2023/08/07 10:29:30;;;;;;;1.50;0.40;;;;;;;18.70;97.38;97722.92;107370;1267;22548;-52
2023/08/07 10:32:02;;;;;;;0.40;0.20;;;;;;;18.67;96.65;97723.42;107133;1275;99691;-53
2023/08/07 10:34:37;;;;;;;2.00;0.40;;;;;;;18.88;97.24;97730.95;107750;1268;26121;-54
2023/08/07 10:37:07;;;;;;;1.10;0.50;;;;;;;19.05;96.67;97729.27;108137;1271;23470;-58
2023/08/07 10:40:04;;;;;;;0.40;0.30;;;;;;;18.95;95.53;97739.88;107715;1267;100287;-57
2023/08/07 10:43:19;;;;;;;0.70;0.40;;;;;;;18.97;95.67;97742.44;107185;1270;22549;-56
2023/08/07 10:45:51;;;;;;;1.60;0.50;;;;;;;19.19;95.13;97740.73;106467;1276;100102;-55
2023/08/07 10:48:26;;;;;;;1.20;0.30;;;;;;;19.10;94.92;97731.67;106575;1280;22637;-53
2023/08/07 10:51:02;;;;;;;;;;;;;;;19.06;94.50;97732.83;106395;1276;99071;-47
2023/08/07 10:53:44;;;;;;;0.20;0.10;;;;;;;19.01;94.04;97733.92;106542;1276;23875;-59
2023/08/07 10:56:31;;;;;;;0.30;0.30;;;;;;;18.87;93.20;97736.94;106604;1277;99265;-58
2023/08/07 10:59:13;;;;;;;1.20;0.50;;;;;;;18.83;93.07;97741.39;107118;1276;22529;-56
2023/08/07 11:01:44;;;;;;;2.90;0.40;;;;;;;18.80;92.79;97749.37;106582;1280;99197;-51
2023/08/07 11:04:16;;;;;;;0.50;0.30;;;;;;;18.80;92.72;97752.11;106598;1279;22579;-59
2023/08/07 11:06:48;;;;;;;0.90;0.30;;;;;;;18.95;92.91;97745.02;106615;1276;22524;-54
2023/08/07 11:09:19;;;;;;;1.70;0.70;;;;;;;18.97;91.75;97744.63;108099;1270;29396;-56
2023/08/07 11:11:49;;;;;;;0.30;0.30;;;;;;;18.94;91.46;97742.95;109803;1277;22358;-58
2023/08/07 11:14:19;;;;;;;0.70;0.20;;;;;;;18.94;91.21;97737.89;109662;1275;99760;-49
2023/08/07 11:16:52;;;;;;;0.40;0.40;;;;;;;18.88;90.59;97734.09;109705;1275;22383;-52
2023/08/07 11:19:23;;;;;;;0.20;0.20;;;;;;;18.75;90.14;97741.09;107504;1267;22561;-57
2023/08/07 11:21:57;;;;;;;2.80;0.40;;;;;;;18.59;89.66;97749.69;107546;1267;99534;-51
2023/08/07 11:24:52;;;;;;;;;;;;;;;18.46;89.54;97753.08;107427;1267;23442;-57
2023/08/07 11:27:49;;;;;;;0.30;0.20;;;;;;;18.28;88.97;97752.44;107370;1269;86696;-54
2023/08/07 11:30:19;;;;;;;0.30;0.20;;;;;;;18.32;89.26;97752.00;107717;1267;25369;-53
2023/08/07 11:32:49;;;;;;;1.60;0.50;;;;;;;18.50;88.93;97757.92;107374;1267;99616;-54
2023/08/07 11:36:02;;;;;;;1.60;0.40;;;;;;;18.61;88.63;97760.27;108075;1267;25345;-53
2023/08/07 11:38:33;;;;;;;0.60;0.40;;;;;;;18.73;88.24;97759.77;107550;1267;100259;-52
2023/08/07 11:41:05;;;;;;;1.00;0.40;;;;;;;18.85;88.06;97766.36;107103;1267;22532;-54
2023/08/07 11:43:35;;;;;;;0.40;0.30;;;;;;;18.90;87.64;97773.24;107151;1269;22573;-54
2023/08/07 11:46:06;;;;;;;1.00;0.20;;;;;;;18.88;87.21;97760.77;106894;1270;97967;-54
2023/08/07 11:48:41;;;;;;;2.40;0.50;;;;;;;18.83;86.74;97757.42;108165;1270;25325;-51
2023/08/07 11:51:11;;;;;;;0.70;0.30;;;;;;;18.78;86.69;97764.19;108084;1253;99077;-55
2023/08/07 11:53:43;;;;;;;2.90;0.50;;;;;;;18.65;86.06;97773.26;107179;1268;26579;-54
2023/08/07 11:56:14;;;;;;;0.60;0.40;;;;;;;18.46;85.79;97771.80;107158;1267;99270;-54
2023/08/07 11:58:53;;;;;;;0.30;0.20;;;;;;;18.32;85.38;97782.85;107398;1266;22526;-61
2023/08/07 12:01:29;;;;;;;1.20;0.40;;;;;;;18.09;85.18;97789.26;107182;1269;24253;-54
2023/08/07 12:04:09;;;;;;;0.30;0.20;;;;;;;18.12;85.67;97782.73;107066;1267;99071;-54
2023/08/07 12:06:59;;;;;;;1.20;0.20;;;;;;;18.31;85.59;97783.88;107281;1269;22565;-55
2023/08/07 12:09:30;;;;;;;0.40;0.30;;;;;;;18.53;85.61;97775.98;107054;1267;99046;-57